Time;durP1;ratioP1;P1;durP2;ratioP2;P2;SDS_P1;SDS_P2;PMS_P1;PMS_P2;Temp;Humidity;BMP_temperature;BMP_pressure;BME280_temperature;BME280_humidity;BME280_pressure;Samples;Min_cycle;Max_cycle;Signal;HPM_P1;HPM_P2
2023/04/21 00:00:33;;;;;;;24.05;15.15;;;8.30;86.30;;;;;;5073080;28;20028;-44
2023/04/21 00:02:58;;;;;;;19.02;16.35;;;8.30;86.40;;;;;;5072351;28;20521;-43
2023/04/21 00:05:25;;;;;;;18.95;14.55;;;8.30;86.40;;;;;;5058426;28;20111;-43
2023/04/21 00:07:51;;;;;;;20.52;15.73;;;8.30;86.20;;;;;;5061155;28;20024;-43
2023/04/21 00:10:18;;;;;;;27.75;16.35;;;8.30;86.20;;;;;;5070661;28;20461;-43
2023/04/21 00:12:49;;;;;;;19.35;15.43;;;8.30;86.20;;;;;;5078012;28;20032;-44
2023/04/21 00:15:17;;;;;;;21.10;14.93;;;8.30;86.10;;;;;;5082285;28;20040;-44
2023/04/21 00:17:49;;;;;;;21.40;16.38;;;8.20;86.10;;;;;;5072250;28;20128;-45
2023/04/21 00:20:16;;;;;;;24.73;15.73;;;8.20;86.30;;;;;;5084856;28;20032;-43
2023/04/21 00:26:05;;;;;;;21.25;14.40;;;8.30;86.20;;;;;;5073007;28;20082;-46
2023/04/21 00:28:32;;;;;;;21.90;14.05;;;8.30;86.10;;;;;;5066214;28;20024;-46
2023/04/21 00:30:57;;;;;;;20.73;13.45;;;8.40;85.90;;;;;;5072474;28;20025;-43
2023/04/21 00:33:25;;;;;;;18.42;13.68;;;8.40;85.70;;;;;;5073805;28;20089;-45
2023/04/21 00:35:53;;;;;;;19.80;12.98;;;8.40;85.60;;;;;;5080614;28;20024;-44
2023/04/21 00:38:19;;;;;;;19.55;12.82;;;8.40;85.50;;;;;;5092620;28;20063;-43
2023/04/21 00:40:45;;;;;;;20.17;13.18;;;8.40;85.50;;;;;;5088644;28;20040;-44
2023/04/21 00:43:11;;;;;;;21.88;14.10;;;8.30;85.70;;;;;;5079819;28;20377;-43
2023/04/21 00:45:38;;;;;;;18.83;13.65;;;8.20;85.90;;;;;;5084565;28;20039;-45
2023/04/21 00:48:08;;;;;;;21.23;12.60;;;8.20;85.90;;;;;;5092891;28;20020;-44
2023/04/21 00:50:37;;;;;;;22.40;12.88;;;8.30;85.60;;;;;;5072560;28;20024;-44
2023/04/21 00:53:04;;;;;;;24.57;14.43;;;8.20;85.80;;;;;;5086489;28;20028;-47
2023/04/21 00:55:30;;;;;;;18.98;12.02;;;8.20;86.00;;;;;;5089784;28;20335;-44
2023/04/21 00:57:57;;;;;;;25.40;12.57;;;8.20;86.00;;;;;;5090112;28;20116;-46
2023/04/21 01:00:23;;;;;;;20.90;12.93;;;8.20;85.90;;;;;;5090658;28;20449;-44
2023/04/21 01:02:50;;;;;;;18.35;12.52;;;8.20;86.10;;;;;;5091116;28;20481;-44
2023/04/21 01:05:19;;;;;;;18.90;13.93;;;8.20;86.00;;;;;;5085053;28;20114;-42
2023/04/21 01:07:46;;;;;;;19.60;13.60;;;8.20;86.00;;;;;;5090307;28;20028;-47
2023/04/21 01:10:13;;;;;;;21.23;13.38;;;8.10;86.10;;;;;;5082547;28;20686;-43
2023/04/21 01:12:44;;;;;;;18.23;13.20;;;8.10;86.10;;;;;;5074187;28;20127;-43
2023/04/21 01:15:13;;;;;;;24.08;11.70;;;8.10;86.30;;;;;;5085742;28;20056;-44
2023/04/21 01:17:41;;;;;;;21.67;14.15;;;8.10;86.20;;;;;;5074318;28;20159;-43
2023/04/21 01:20:10;;;;;;;19.23;12.60;;;8.00;86.20;;;;;;5085235;28;20068;-45
2023/04/21 01:22:41;;;;;;;17.48;14.25;;;8.00;86.30;;;;;;5072408;28;20033;-43
2023/04/21 01:25:09;;;;;;;17.55;13.40;;;8.00;86.30;;;;;;5078176;28;20064;-44
2023/04/21 01:27:35;;;;;;;30.45;14.18;;;8.00;86.20;;;;;;5072124;28;20030;-43
2023/04/21 01:30:04;;;;;;;23.08;13.90;;;8.00;86.40;;;;;;5086679;28;20058;-44
2023/04/21 01:32:31;;;;;;;23.05;13.77;;;8.00;86.40;;;;;;5054857;28;20029;-44
2023/04/21 01:34:58;;;;;;;27.38;14.75;;;8.00;86.30;;;;;;5086205;28;20040;-48
2023/04/21 01:37:31;;;;;;;27.65;15.38;;;8.00;86.30;;;;;;5088967;28;20427;-43
2023/04/21 01:40:04;;;;;;;21.15;14.60;;;8.00;86.20;;;;;;5071613;28;20039;-44
2023/04/21 01:42:33;;;;;;;24.85;14.70;;;8.00;86.20;;;;;;5054443;28;20355;-44
2023/04/21 01:45:00;;;;;;;23.20;14.15;;;8.00;86.40;;;;;;5089584;28;20035;-43
2023/04/21 01:47:27;;;;;;;24.17;13.68;;;8.00;86.40;;;;;;5094070;28;20032;-45
2023/04/21 01:49:55;;;;;;;20.85;15.02;;;8.00;86.40;;;;;;5082953;28;20020;-44
2023/04/21 01:52:22;;;;;;;23.75;14.07;;;8.00;86.40;;;;;;5058039;28;20056;-44
2023/04/21 01:54:49;;;;;;;22.63;14.32;;;8.00;86.40;;;;;;5086771;28;20457;-45
2023/04/21 01:57:16;;;;;;;21.30;13.90;;;7.90;86.50;;;;;;5093119;28;20043;-43
2023/04/21 01:59:44;;;;;;;23.10;14.38;;;7.90;86.60;;;;;;5093627;28;20031;-43
2023/04/21 02:02:10;;;;;;;21.60;14.10;;;7.90;86.70;;;;;;5094139;28;20039;-45
2023/04/21 02:04:40;;;;;;;17.25;14.10;;;7.90;86.70;;;;;;5075315;28;20028;-44
2023/04/21 02:07:06;;;;;;;23.27;13.38;;;7.90;86.70;;;;;;5081716;28;20024;-43
2023/04/21 02:09:32;;;;;;;27.17;14.65;;;7.90;86.70;;;;;;5087902;28;20346;-44
2023/04/21 02:12:00;;;;;;;24.10;15.00;;;7.90;86.90;;;;;;5075824;28;20062;-44
2023/04/21 02:14:27;;;;;;;24.00;14.35;;;7.90;86.90;;;;;;5076435;28;20173;-45
2023/04/21 02:16:56;;;;;;;22.67;12.93;;;7.90;87.00;;;;;;5081664;28;20726;-46
2023/04/21 02:19:23;;;;;;;22.27;14.50;;;7.90;86.90;;;;;;5067759;28;20039;-44
2023/04/21 02:21:50;;;;;;;21.35;13.57;;;7.90;86.80;;;;;;5083131;28;20028;-47
2023/04/21 02:24:19;;;;;;;20.70;12.77;;;7.90;86.70;;;;;;5065396;28;20391;-45
2023/04/21 02:26:46;;;;;;;19.40;13.30;;;7.90;86.80;;;;;;5082253;28;20031;-44
2023/04/21 02:29:13;;;;;;;20.15;13.60;;;7.90;86.70;;;;;;5084802;28;20028;-44
2023/04/21 02:31:41;;;;;;;23.02;13.63;;;7.90;86.90;;;;;;5070468;28;20449;-45
2023/04/21 02:34:08;;;;;;;19.75;13.93;;;7.90;87.00;;;;;;5084012;28;20032;-48
2023/04/21 02:36:35;;;;;;;23.88;14.77;;;7.90;87.10;;;;;;5062488;28;20035;-43
2023/04/21 02:39:03;;;;;;;19.73;13.13;;;7.90;87.00;;;;;;5068251;28;20028;-46
2023/04/21 02:41:30;;;;;;;19.80;12.52;;;7.90;87.10;;;;;;5084673;28;20143;-44
2023/04/21 02:43:55;;;;;;;20.98;12.65;;;7.90;87.10;;;;;;5082489;28;20111;-45
2023/04/21 02:46:22;;;;;;;22.10;12.85;;;7.90;86.90;;;;;;5081097;28;20111;-44
2023/04/21 02:48:52;;;;;;;20.67;13.02;;;7.90;86.80;;;;;;5057076;28;20032;-43
2023/04/21 02:51:18;;;;;;;19.33;12.30;;;7.90;86.90;;;;;;5076262;28;20590;-44
2023/04/21 02:53:45;;;;;;;18.30;12.98;;;7.90;86.80;;;;;;5093806;28;20425;-44
2023/04/21 02:56:12;;;;;;;24.48;13.27;;;7.90;87.00;;;;;;5083530;28;20024;-44
2023/04/21 02:58:39;;;;;;;19.73;12.60;;;7.80;87.10;;;;;;5079332;28;20028;-44
2023/04/21 03:01:06;;;;;;;18.13;12.40;;;7.90;87.10;;;;;;5079485;28;20020;-43
2023/04/21 03:03:33;;;;;;;23.75;12.65;;;7.90;87.10;;;;;;5083208;28;20483;-44
2023/04/21 03:06:03;;;;;;;18.05;12.73;;;7.90;87.00;;;;;;5085585;28;20457;-44
2023/04/21 03:08:31;;;;;;;17.88;11.60;;;7.90;86.90;;;;;;5073931;28;20021;-44
2023/04/21 03:10:58;;;;;;;20.60;13.90;;;7.90;86.90;;;;;;5074070;28;20350;-43
2023/04/21 03:13:25;;;;;;;18.90;10.93;;;7.90;86.90;;;;;;5067283;28;20020;-45
2023/04/21 03:15:54;;;;;;;21.17;11.38;;;7.80;86.90;;;;;;5089658;28;20023;-45
2023/04/21 03:18:21;;;;;;;24.33;12.30;;;7.90;86.80;;;;;;5093489;28;20319;-44
2023/04/21 03:20:48;;;;;;;24.33;12.68;;;7.90;86.70;;;;;;5092482;28;20115;-43
2023/04/21 03:23:15;;;;;;;22.38;13.90;;;7.90;86.60;;;;;;5082616;28;20028;-45
2023/04/21 03:25:42;;;;;;;23.08;13.25;;;7.90;86.60;;;;;;5091218;28;20032;-46
2023/04/21 03:28:09;;;;;;;18.85;10.82;;;7.90;86.60;;;;;;5092865;28;20062;-43
2023/04/21 03:30:36;;;;;;;16.55;12.10;;;7.90;86.90;;;;;;5079882;28;20031;-45
2023/04/21 03:33:03;;;;;;;23.83;12.15;;;7.90;86.90;;;;;;5061501;28;20123;-44
2023/04/21 03:35:30;;;;;;;18.80;11.85;;;7.80;86.80;;;;;;5056120;28;20442;-44
2023/04/21 03:37:57;;;;;;;22.23;12.43;;;7.80;86.80;;;;;;5075639;28;20065;-45
2023/04/21 03:40:23;;;;;;;16.58;13.00;;;7.80;86.90;;;;;;5077072;28;20035;-48
2023/04/21 03:42:52;;;;;;;18.00;12.55;;;7.70;87.00;;;;;;5073630;28;20342;-46
2023/04/21 03:45:21;;;;;;;24.30;12.20;;;7.70;87.20;;;;;;5074976;28;20034;-45
2023/04/21 03:47:51;;;;;;;17.52;11.32;;;7.70;87.20;;;;;;5075305;28;20034;-43
2023/04/21 03:50:17;;;;;;;21.50;11.57;;;7.70;87.20;;;;;;5092439;28;20047;-45
2023/04/21 03:52:43;;;;;;;20.23;12.23;;;7.80;87.10;;;;;;5091957;28;20551;-44
2023/04/21 03:55:10;;;;;;;19.17;12.85;;;7.70;87.00;;;;;;5075445;28;20032;-43
2023/04/21 03:57:41;;;;;;;20.50;12.10;;;7.70;87.10;;;;;;5082736;28;20568;-44
2023/04/21 04:00:09;;;;;;;21.77;12.18;;;7.60;87.10;;;;;;5072583;28;20037;-45
2023/04/21 04:02:36;;;;;;;19.63;11.98;;;7.70;87.10;;;;;;5090305;28;20349;-45
2023/04/21 04:05:08;;;;;;;15.88;10.88;;;7.80;86.90;;;;;;5093223;28;20032;-45
2023/04/21 04:07:35;;;;;;;17.33;11.15;;;7.80;86.90;;;;;;5091561;28;20743;-45
2023/04/21 04:10:01;;;;;;;20.80;11.88;;;7.70;86.70;;;;;;5073122;28;20083;-44
2023/04/21 04:12:28;;;;;;;21.67;12.57;;;7.80;86.90;;;;;;5089278;28;20073;-44
2023/04/21 04:14:55;;;;;;;16.75;10.77;;;7.80;86.90;;;;;;5091755;28;20481;-43
2023/04/21 04:17:22;;;;;;;19.73;12.18;;;7.70;87.00;;;;;;5076831;28;20047;-44
2023/04/21 04:19:49;;;;;;;15.38;11.00;;;7.80;87.20;;;;;;5073229;28;20029;-44
2023/04/21 04:22:15;;;;;;;14.63;10.50;;;7.80;87.00;;;;;;5054101;28;20081;-44
2023/04/21 04:24:43;;;;;;;17.05;10.55;;;7.80;86.90;;;;;;5075693;28;20053;-46
2023/04/21 04:27:15;;;;;;;16.42;10.98;;;7.80;86.80;;;;;;5074585;28;20051;-46
2023/04/21 04:29:42;;;;;;;22.83;10.43;;;7.80;86.90;;;;;;5090620;28;20024;-43
2023/04/21 04:32:09;;;;;;;20.63;11.07;;;7.80;86.70;;;;;;5077680;28;20106;-44
2023/04/21 04:34:37;;;;;;;19.73;10.50;;;7.80;86.70;;;;;;5079450;28;20044;-43
2023/04/21 04:37:03;;;;;;;15.23;10.90;;;7.80;86.80;;;;;;5072725;28;20059;-43
2023/04/21 04:39:31;;;;;;;21.63;11.18;;;7.80;86.80;;;;;;5073291;28;20063;-44
2023/04/21 04:42:00;;;;;;;15.30;10.20;;;7.80;86.80;;;;;;5072574;28;20354;-44
2023/04/21 04:44:27;;;;;;;19.33;10.75;;;7.80;86.90;;;;;;5076247;28;20098;-44
2023/04/21 04:46:53;;;;;;;13.63;10.32;;;7.80;86.70;;;;;;5086825;28;20056;-44
2023/04/21 04:49:20;;;;;;;16.13;9.45;;;7.80;86.70;;;;;;5070492;28;20032;-44
2023/04/21 04:51:47;;;;;;;19.58;10.45;;;7.80;86.70;;;;;;5084801;28;20058;-45
2023/04/21 04:54:14;;;;;;;13.68;9.63;;;7.90;86.50;;;;;;5084181;28;20025;-44
2023/04/21 04:56:40;;;;;;;17.05;10.70;;;7.90;86.50;;;;;;5072206;28;20082;-44
2023/04/21 04:59:05;;;;;;;17.08;10.48;;;7.90;86.30;;;;;;5079633;28;20028;-46
2023/04/21 05:01:34;;;;;;;19.20;10.23;;;7.90;86.30;;;;;;5066675;28;20043;-45
2023/04/21 05:04:01;;;;;;;13.17;9.90;;;7.90;86.10;;;;;;5075436;28;20039;-44
2023/04/21 05:06:31;;;;;;;14.48;9.80;;;7.90;86.10;;;;;;5072544;28;20020;-44
2023/04/21 05:08:57;;;;;;;16.08;10.52;;;7.90;86.10;;;;;;5074018;28;20048;-44
2023/04/21 05:11:24;;;;;;;18.70;12.32;;;7.90;86.10;;;;;;5074767;28;20064;-46
2023/04/21 05:13:50;;;;;;;15.20;9.23;;;8.00;85.90;;;;;;5081687;28;20035;-44
2023/04/21 05:16:16;;;;;;;17.48;10.15;;;8.00;85.60;;;;;;5088386;28;20338;-44
2023/04/21 05:18:52;;;;;;;22.23;11.23;;;8.20;85.70;;;;;;5073448;28;20036;-45
2023/04/21 05:21:27;;;;;;;22.55;10.07;;;8.20;85.50;;;;;;5064239;28;20529;-46
2023/04/21 05:23:58;;;;;;;17.60;9.77;;;8.20;85.20;;;;;;5063826;28;20120;-46
2023/04/21 05:26:26;;;;;;;16.80;9.45;;;8.30;85.10;;;;;;5073754;28;20028;-46
2023/04/21 05:28:57;;;;;;;19.70;9.40;;;8.30;84.70;;;;;;5095272;28;20024;-47
2023/04/21 05:31:24;;;;;;;16.05;9.52;;;8.30;84.50;;;;;;5089102;28;20128;-43
2023/04/21 05:33:53;;;;;;;14.85;9.52;;;8.40;84.60;;;;;;5083173;28;20033;-43
2023/04/21 05:36:20;;;;;;;15.98;10.25;;;8.50;84.10;;;;;;5079432;28;20042;-44
2023/04/21 05:38:52;;;;;;;14.73;10.27;;;8.50;83.90;;;;;;5089412;28;20036;-45
2023/04/21 05:41:21;;;;;;;16.25;9.32;;;8.50;83.80;;;;;;5085236;28;20036;-48
2023/04/21 05:43:48;;;;;;;13.90;8.87;;;8.60;83.60;;;;;;5084710;28;20106;-44
2023/04/21 05:46:15;;;;;;;13.07;9.50;;;8.60;83.70;;;;;;5078613;28;20426;-44
2023/04/21 05:48:42;;;;;;;14.80;9.35;;;8.70;83.90;;;;;;5089137;28;20046;-44
2023/04/21 05:51:10;;;;;;;18.63;10.23;;;8.80;84.00;;;;;;5089044;28;20029;-44
2023/04/21 05:53:41;;;;;;;14.05;9.45;;;8.90;83.50;;;;;;5072573;28;20020;-44
2023/04/21 05:56:11;;;;;;;12.35;9.15;;;9.00;83.10;;;;;;5078277;28;20115;-45
2023/04/21 05:58:38;;;;;;;17.23;10.43;;;9.20;82.90;;;;;;5083570;28;20028;-44
2023/04/21 06:01:14;;;;;;;14.60;9.75;;;9.20;82.50;;;;;;5087593;28;20361;-44
2023/04/21 06:03:41;;;;;;;19.02;10.18;;;9.30;81.90;;;;;;5083926;28;20348;-45
2023/04/21 06:06:09;;;;;;;14.80;9.73;;;9.40;81.80;;;;;;5092574;28;20039;-44
2023/04/21 06:08:35;;;;;;;15.73;9.20;;;9.40;81.60;;;;;;5073762;28;20470;-45
2023/04/21 06:11:01;;;;;;;13.38;10.57;;;9.50;81.80;;;;;;5075897;28;20124;-45
2023/04/21 06:13:28;;;;;;;13.43;9.05;;;9.50;81.40;;;;;;5062037;28;20040;-43
2023/04/21 06:15:56;;;;;;;13.25;9.23;;;9.60;81.30;;;;;;5086793;28;20040;-46
2023/04/21 06:18:26;;;;;;;17.13;8.57;;;9.70;80.30;;;;;;5092206;28;20031;-44
2023/04/21 06:20:56;;;;;;;18.33;10.68;;;9.80;80.70;;;;;;5071434;28;20412;-46
2023/04/21 06:23:24;;;;;;;17.08;8.82;;;9.90;80.00;;;;;;5067467;28;20067;-44
2023/04/21 06:26:03;;;;;;;16.45;9.70;;;9.90;79.60;;;;;;5085197;28;20029;-45
2023/04/21 06:28:33;;;;;;;13.50;8.32;;;9.90;79.20;;;;;;5055146;28;20028;-45
2023/04/21 06:31:04;;;;;;;13.02;9.20;;;9.90;79.00;;;;;;5073855;28;20093;-44
2023/04/21 06:33:31;;;;;;;14.20;9.35;;;9.90;78.80;;;;;;5080783;28;20033;-44
2023/04/21 06:35:58;;;;;;;17.85;9.40;;;9.90;79.40;;;;;;5088259;28;20170;-45
2023/04/21 06:38:26;;;;;;;14.85;9.68;;;9.90;79.30;;;;;;5084781;28;20024;-45
2023/04/21 06:40:54;;;;;;;16.35;9.40;;;9.90;79.50;;;;;;5083115;28;20460;-43
2023/04/21 06:43:20;;;;;;;17.20;9.52;;;9.90;78.40;;;;;;5085605;28;20069;-44
2023/04/21 06:45:49;;;;;;;11.52;9.23;;;9.90;79.20;;;;;;5051155;28;20082;-45
2023/04/21 06:48:16;;;;;;;16.17;9.57;;;9.90;78.90;;;;;;5083347;28;20024;-45
2023/04/21 06:50:43;;;;;;;14.73;10.10;;;10.00;79.20;;;;;;5084004;28;20030;-45
2023/04/21 06:53:10;;;;;;;14.00;8.93;;;10.10;79.30;;;;;;5067642;28;20021;-44
2023/04/21 06:55:38;;;;;;;15.55;9.43;;;10.10;78.80;;;;;;5082804;28;20029;-44
2023/04/21 06:58:05;;;;;;;18.20;9.40;;;10.20;78.70;;;;;;5084571;28;20036;-45
2023/04/21 07:00:31;;;;;;;16.17;11.18;;;10.20;78.70;;;;;;5086283;28;20069;-43
2023/04/21 07:02:57;;;;;;;14.65;9.10;;;10.40;79.20;;;;;;5083549;28;20024;-45
2023/04/21 07:05:24;;;;;;;16.50;9.65;;;10.40;78.10;;;;;;5086706;28;20468;-45
2023/04/21 07:07:58;;;;;;;13.35;10.32;;;10.40;78.20;;;;;;5078459;28;20033;-45
2023/04/21 07:10:28;;;;;;;12.13;9.48;;;10.50;77.80;;;;;;5085979;28;20488;-46
2023/04/21 07:12:57;;;;;;;;;;;10.50;78.10;;;;;;5082575;28;20039;-45
2023/04/21 07:15:24;;;;;;;16.80;8.85;;;10.50;78.30;;;;;;5083133;28;20018;-44
2023/04/21 07:17:52;;;;;;;12.57;8.98;;;10.60;78.10;;;;;;5083771;28;20040;-46
2023/04/21 07:20:20;;;;;;;16.67;10.00;;;10.70;78.30;;;;;;5090019;28;20036;-45
2023/04/21 07:22:51;;;;;;;16.23;11.07;;;10.80;77.80;;;;;;5089184;28;20032;-44
2023/04/21 07:25:18;;;;;;;13.45;10.25;;;10.90;77.80;;;;;;5072995;28;20040;-46
2023/04/21 07:27:46;;;;;;;12.80;9.27;;;11.00;77.80;;;;;;5087787;28;20807;-44
2023/04/21 07:30:15;;;;;;;15.70;10.43;;;11.20;77.40;;;;;;5082029;28;20024;-44
2023/04/21 07:32:42;;;;;;;12.68;9.93;;;11.40;76.40;;;;;;5084262;28;20099;-47
2023/04/21 07:35:09;;;;;;;14.90;10.23;;;11.50;76.60;;;;;;5086742;28;20035;-46
2023/04/21 07:37:35;;;;;;;16.00;9.50;;;11.70;76.10;;;;;;5092920;28;20051;-48
2023/04/21 07:40:04;;;;;;;13.40;10.18;;;11.90;75.30;;;;;;5091708;28;20032;-45
2023/04/21 07:42:31;;;;;;;14.40;10.50;;;12.20;73.60;;;;;;5081462;28;20055;-45
2023/04/21 07:44:59;;;;;;;16.08;9.82;;;12.30;73.50;;;;;;5088006;28;20500;-45
2023/04/21 07:47:29;;;;;;;;;;;12.40;72.80;;;;;;5091862;28;20089;-45
2023/04/21 07:49:56;;;;;;;14.15;8.98;;;12.70;73.10;;;;;;5084041;28;19965;-45
2023/04/21 07:52:22;;;;;;;15.98;8.85;;;12.90;71.70;;;;;;5085735;28;20056;-44
2023/04/21 07:54:50;;;;;;;16.23;9.40;;;13.40;70.30;;;;;;5066105;28;20111;-46
2023/04/21 07:57:17;;;;;;;18.88;11.10;;;13.50;69.00;;;;;;5070233;28;20054;-45
2023/04/21 07:59:43;;;;;;;15.25;9.05;;;13.70;68.60;;;;;;5079136;28;20081;-47
2023/04/21 08:02:11;;;;;;;12.55;9.13;;;13.80;68.80;;;;;;5082352;28;20054;-45
2023/04/21 08:04:40;;;;;;;11.30;9.65;;;14.10;67.40;;;;;;5082521;28;20027;-48
2023/04/21 08:07:12;;;;;;;12.57;8.68;;;14.20;66.90;;;;;;5079460;28;20070;-44
2023/04/21 08:09:38;;;;;;;13.77;8.77;;;14.40;66.20;;;;;;5076055;28;20020;-45
2023/04/21 08:12:10;;;;;;;13.85;9.70;;;14.70;66.60;;;;;;5063952;28;20024;-44
2023/04/21 08:14:37;;;;;;;16.90;8.55;;;15.20;64.80;;;;;;5083733;28;20784;-45
2023/04/21 08:17:04;;;;;;;11.82;8.85;;;15.40;63.80;;;;;;5079328;28;20434;-45
2023/04/21 08:19:29;;;;;;;13.80;9.80;;;15.80;63.70;;;;;;5062623;28;20085;-46
2023/04/21 08:21:57;;;;;;;12.32;8.75;;;15.80;61.80;;;;;;5063870;28;20028;-46
2023/04/21 08:24:23;;;;;;;14.40;8.75;;;15.60;63.90;;;;;;5082200;28;20036;-47
2023/04/21 08:26:50;;;;;;;11.70;9.30;;;16.10;62.60;;;;;;5063082;28;20097;-48
2023/04/21 08:29:17;;;;;;;12.07;9.00;;;16.10;61.50;;;;;;5068843;28;20358;-48
2023/04/21 08:31:44;;;;;;;11.73;8.20;;;16.40;61.20;;;;;;5086006;28;20055;-45
2023/04/21 08:34:12;;;;;;;13.98;9.50;;;16.40;61.20;;;;;;5088425;28;20111;-45
2023/04/21 08:36:38;;;;;;;12.48;9.13;;;16.20;60.70;;;;;;5069100;28;20031;-47
2023/04/21 08:39:06;;;;;;;17.20;9.65;;;16.40;61.60;;;;;;5067189;28;20369;-46
2023/04/21 08:41:34;;;;;;;13.93;8.48;;;16.40;60.00;;;;;;5068024;28;20032;-46
2023/04/21 08:44:01;;;;;;;11.57;8.45;;;16.60;58.90;;;;;;5091094;28;20146;-45
2023/04/21 08:46:31;;;;;;;12.57;8.88;;;16.60;60.30;;;;;;5035510;28;20446;-47
2023/04/21 08:48:58;;;;;;;10.52;9.05;;;16.30;59.40;;;;;;5087302;28;20032;-44
2023/04/21 08:51:30;;;;;;;14.55;9.10;;;16.40;61.20;;;;;;5065803;28;20037;-47
2023/04/21 08:54:04;;;;;;;15.65;9.82;;;16.30;60.60;;;;;;5078408;28;20032;-45
2023/04/21 08:56:31;;;;;;;14.73;9.50;;;16.50;60.10;;;;;;5079237;28;20052;-45
2023/04/21 08:58:59;;;;;;;14.90;9.60;;;16.60;59.90;;;;;;5073953;28;20025;-49
2023/04/21 09:01:26;;;;;;;12.07;9.48;;;16.80;60.00;;;;;;5080121;28;20383;-47
2023/04/21 09:04:15;;;;;;;14.70;9.60;;;17.10;59.30;;;;;;5051914;28;20078;-48
2023/04/21 09:06:44;;;;;;;12.80;8.55;;;17.00;58.70;;;;;;5074074;28;20104;-46
2023/04/21 09:09:11;;;;;;;;;;;17.10;57.70;;;;;;5055179;28;20092;-46
2023/04/21 09:11:39;;;;;;;11.15;9.20;;;17.20;60.30;;;;;;5087217;28;19959;-47
2023/04/21 09:14:06;;;;;;;12.25;9.20;;;17.40;59.00;;;;;;5079179;28;20027;-46
2023/04/21 09:16:36;;;;;;;13.77;9.85;;;17.30;59.90;;;;;;4951324;28;3797609;-47
2023/04/21 09:19:14;;;;;;;12.30;9.03;;;17.50;58.60;;;;;;5083353;28;20020;-46
2023/04/21 09:21:43;;;;;;;15.82;8.55;;;17.90;58.50;;;;;;5038356;28;20056;-49
2023/04/21 09:24:12;;;;;;;12.95;9.00;;;17.70;56.90;;;;;;5067293;28;20093;-50
2023/04/21 09:26:41;;;;;;;12.70;8.90;;;17.90;57.10;;;;;;5064118;28;20122;-46
2023/04/21 09:29:08;;;;;;;13.38;9.30;;;17.90;56.20;;;;;;5087804;28;20375;-46
2023/04/21 09:31:34;;;;;;;10.60;9.07;;;17.90;55.30;;;;;;5074425;28;20032;-51
2023/04/21 09:34:02;;;;;;;10.93;9.15;;;17.70;56.10;;;;;;5065888;28;20040;-45
2023/04/21 09:36:30;;;;;;;13.18;8.80;;;17.60;57.00;;;;;;5079002;28;20051;-45
2023/04/21 09:39:07;;;;;;;13.57;9.10;;;17.80;58.10;;;;;;5024783;28;20119;-50
2023/04/21 09:41:35;;;;;;;12.60;10.40;;;17.70;58.70;;;;;;5055080;28;20542;-45
2023/04/21 09:44:04;;;;;;;19.35;10.80;;;17.90;57.30;;;;;;5080089;28;20097;-47
2023/04/21 09:46:36;;;;;;;13.70;10.15;;;18.10;56.60;;;;;;5068899;28;20437;-46
2023/04/21 09:49:02;;;;;;;14.27;9.27;;;17.90;58.30;;;;;;5078104;28;20028;-46
2023/04/21 09:51:31;;;;;;;12.45;9.98;;;17.70;58.10;;;;;;5054204;28;20040;-46
2023/04/21 09:54:06;;;;;;;13.38;10.27;;;17.40;58.20;;;;;;5072303;28;20024;-50
2023/04/21 09:56:39;;;;;;;16.20;10.75;;;17.00;59.30;;;;;;5065694;28;20029;-48
2023/04/21 09:59:11;;;;;;;15.00;10.25;;;17.20;61.90;;;;;;5056263;28;20496;-46
2023/04/21 10:01:49;;;;;;;13.10;10.27;;;17.30;60.30;;;;;;5083270;28;20032;-46
2023/04/21 10:04:17;;;;;;;13.18;9.35;;;17.60;61.40;;;;;;5083316;28;20024;-46
2023/04/21 10:06:47;;;;;;;13.18;10.15;;;17.90;61.30;;;;;;5091139;28;20139;-46
2023/04/21 10:09:20;;;;;;;16.60;10.77;;;18.20;60.60;;;;;;5068305;28;20051;-47
2023/04/21 10:11:48;;;;;;;13.40;9.85;;;18.10;61.40;;;;;;5041051;28;20119;-50
2023/04/21 10:14:15;;;;;;;14.52;10.00;;;18.20;61.00;;;;;;5087014;28;20028;-47
2023/04/21 10:16:55;;;;;;;17.88;11.55;;;18.20;61.30;;;;;;5063888;28;20045;-46
2023/04/21 10:19:34;;;;;;;24.50;11.23;;;18.00;61.60;;;;;;5087050;28;20113;-46
2023/04/21 10:22:05;;;;;;;14.45;10.40;;;17.90;63.40;;;;;;5085920;28;20035;-49
2023/04/21 10:24:32;;;;;;;11.88;9.55;;;18.00;61.80;;;;;;5091664;28;20055;-47
2023/04/21 10:27:01;;;;;;;14.75;9.48;;;18.20;61.40;;;;;;5093707;28;20374;-46
2023/04/21 10:29:33;;;;;;;15.80;10.60;;;18.30;61.50;;;;;;5084241;28;20021;-46
2023/04/21 10:32:00;;;;;;;13.98;10.70;;;18.30;61.30;;;;;;5046422;28;20035;-46
2023/04/21 10:34:44;;;;;;;15.95;9.68;;;18.30;60.80;;;;;;5069436;28;20123;-46
2023/04/21 10:37:15;;;;;;;12.38;9.43;;;18.20;60.30;;;;;;5093518;28;20024;-46
2023/04/21 10:40:07;;;;;;;21.45;12.13;;;18.20;60.50;;;;;;5056545;28;20041;-49
2023/04/21 10:42:36;;;;;;;12.38;9.63;;;18.50;61.60;;;;;;5082109;28;20070;-46
2023/04/21 10:45:10;;;;;;;11.05;8.60;;;18.60;59.70;;;;;;5064304;28;20033;-49
2023/04/21 10:47:57;;;;;;;13.65;10.10;;;18.70;59.10;;;;;;5044568;28;20480;-50
2023/04/21 10:50:29;;;;;;;14.38;10.07;;;18.70;57.60;;;;;;5085147;28;20338;-49
2023/04/21 10:53:15;;;;;;;16.20;10.48;;;18.50;56.50;;;;;;5059020;28;20398;-50
2023/04/21 10:55:51;;;;;;;13.65;9.93;;;18.60;58.20;;;;;;5072240;28;20071;-47
2023/04/21 10:58:20;;;;;;;13.20;10.23;;;18.90;58.40;;;;;;5041134;28;20462;-52
2023/04/21 11:00:58;;;;;;;14.40;10.57;;;18.70;55.70;;;;;;5075475;28;20510;-48
2023/04/21 11:03:34;;;;;;;16.17;10.10;;;18.50;58.10;;;;;;5046417;28;20290;-51
2023/04/21 11:06:13;;;;;;;23.50;10.70;;;18.40;58.10;;;;;;5060042;28;20035;-46
2023/04/21 11:09:02;;;;;;;13.35;10.70;;;18.40;59.50;;;;;;5058552;28;20037;-47
2023/04/21 11:11:32;;;;;;;15.93;10.25;;;18.40;58.80;;;;;;5087011;28;20074;-47
2023/04/21 11:14:02;;;;;;;13.45;9.93;;;18.50;57.70;;;;;;5088536;28;20059;-47
2023/04/21 11:16:30;;;;;;;15.13;10.13;;;18.40;58.60;;;;;;5087225;28;20044;-50
2023/04/21 11:18:57;;;;;;;13.20;10.70;;;18.40;59.40;;;;;;5044395;28;20028;-50
2023/04/21 11:21:28;;;;;;;12.52;9.82;;;18.40;60.10;;;;;;5091401;28;20024;-47
2023/04/21 11:23:56;;;;;;;21.90;12.02;;;18.40;58.50;;;;;;5092996;28;20038;-48
2023/04/21 11:26:38;;;;;;;17.38;11.70;;;18.30;58.80;;;;;;5088083;28;20054;-46
2023/04/21 11:29:17;;;;;;;16.73;10.48;;;18.10;59.20;;;;;;5088450;28;20016;-49
2023/04/21 11:31:47;;;;;;;14.15;9.80;;;18.10;60.00;;;;;;5062163;28;20032;-46
2023/04/21 11:34:20;;;;;;;18.20;11.55;;;18.10;59.40;;;;;;5084982;28;20028;-48
2023/04/21 11:36:51;;;;;;;14.45;9.75;;;18.10;60.00;;;;;;5067144;28;20039;-52
2023/04/21 11:39:24;;;;;;;18.30;10.57;;;18.10;60.50;;;;;;5079866;28;20069;-48
2023/04/21 11:41:50;;;;;;;14.50;11.07;;;18.10;59.80;;;;;;5086289;28;20036;-48
2023/04/21 11:44:37;;;;;;;12.93;10.27;;;18.10;60.30;;;;;;5078291;28;20082;-46
2023/04/21 11:47:24;;;;;;;13.63;11.52;;;17.90;60.90;;;;;;5069462;28;20032;-46
2023/04/21 11:49:55;;;;;;;14.45;10.23;;;18.10;60.20;;;;;;5050468;28;20036;-46
2023/04/21 11:52:25;;;;;;;14.25;9.82;;;18.00;59.90;;;;;;5060287;28;20037;-45
2023/04/21 11:54:57;;;;;;;15.85;10.80;;;18.20;59.70;;;;;;5084753;28;20035;-44
2023/04/21 11:57:24;;;;;;;14.35;11.35;;;18.10;60.30;;;;;;5065551;28;20369;-45
2023/04/21 11:59:52;;;;;;;13.30;10.50;;;18.00;60.20;;;;;;5059805;28;20365;-48
2023/04/21 12:02:26;;;;;;;18.27;12.13;;;18.00;61.70;;;;;;5062415;28;20028;-47
2023/04/21 12:05:20;;;;;;;12.35;9.63;;;18.20;61.60;;;;;;5074885;28;20771;-47
2023/04/21 12:07:51;;;;;;;15.32;10.52;;;18.10;59.80;;;;;;5078782;28;20056;-47
2023/04/21 12:10:20;;;;;;;13.30;9.73;;;18.30;59.10;;;;;;5078740;28;20032;-47
2023/04/21 12:12:47;;;;;;;16.48;11.15;;;18.30;60.00;;;;;;5080100;28;20832;-45
2023/04/21 12:15:30;;;;;;;14.98;9.93;;;18.40;59.70;;;;;;5062756;28;20131;-46
2023/04/21 12:17:58;;;;;;;14.27;10.38;;;18.50;60.00;;;;;;5061088;28;20048;-50
2023/04/21 12:20:28;;;;;;;13.82;9.95;;;18.50;59.10;;;;;;5086695;28;20032;-46
2023/04/21 12:22:55;;;;;;;12.25;9.15;;;18.60;57.10;;;;;;5081175;28;20074;-46
2023/04/21 12:25:27;;;;;;;17.25;10.43;;;18.60;58.90;;;;;;5080814;28;20467;-46
2023/04/21 12:27:58;;;;;;;13.55;9.35;;;18.70;56.30;;;;;;5073947;28;20461;-47
2023/04/21 12:30:24;;;;;;;16.30;10.50;;;18.70;58.20;;;;;;5078104;28;20066;-48
2023/04/21 12:32:50;;;;;;;14.10;9.93;;;18.70;58.50;;;;;;5077972;28;20048;-47
2023/04/21 12:35:21;;;;;;;11.38;9.43;;;18.70;58.30;;;;;;5092115;28;20039;-46
2023/04/21 12:37:48;;;;;;;12.15;9.07;;;18.90;58.90;;;;;;5083029;28;20033;-46
2023/04/21 12:40:13;;;;;;;13.30;9.80;;;19.00;53.70;;;;;;5073190;28;20024;-47
2023/04/21 12:42:40;;;;;;;14.25;9.27;;;19.10;52.60;;;;;;5056946;28;20035;-46
2023/04/21 12:45:07;;;;;;;11.55;9.25;;;19.10;53.80;;;;;;5083350;28;20024;-46
2023/04/21 12:47:35;;;;;;;12.00;10.35;;;19.20;53.10;;;;;;5059295;28;20086;-46